Time;durP1;ratioP1;P1;durP2;ratioP2;P2;SDS_P1;SDS_P2;PMS_P1;PMS_P2;Temp;Humidity;BMP_temperature;BMP_pressure;BME280_temperature;BME280_humidity;BME280_pressure;Samples;Min_cycle;Max_cycle;Signal;HPM_P1;HPM_P2
2021/06/13 00:05:26;;;;;;;8.65;2.42;;;13.00;99.90;;;;;;21039331;28;20052;-50
2021/06/13 00:15:27;;;;;;;13.75;2.75;;;13.00;99.90;;;;;;21039331;28;20131;-50
2021/06/13 00:25:29;;;;;;;6.82;2.08;;;12.90;99.90;;;;;;21034016;28;20040;-50
2021/06/13 00:35:30;;;;;;;5.55;2.13;;;13.00;99.90;;;;;;21038190;28;20437;-50
2021/06/13 00:45:32;;;;;;;6.00;1.85;;;12.90;99.90;;;;;;21042878;28;20046;-50
2021/06/13 00:55:34;;;;;;;4.68;2.15;;;12.80;99.90;;;;;;21033794;28;20419;-50
2021/06/13 01:05:35;;;;;;;4.72;2.45;;;12.70;99.90;;;;;;21047519;28;20105;-49
2021/06/13 01:15:42;;;;;;;5.32;2.40;;;12.60;99.90;;;;;;21050567;28;20039;-49
2021/06/13 01:26:17;;;;;;;9.32;2.78;;;12.50;99.90;;;;;;21047656;28;20055;-50
2021/06/13 01:36:20;;;;;;;3.78;2.20;;;12.40;99.90;;;;;;21031116;28;20058;-50
2021/06/13 01:46:23;;;;;;;8.93;2.15;;;12.30;99.90;;;;;;21046267;28;20051;-50
2021/06/13 01:56:25;;;;;;;6.45;2.38;;;12.20;99.90;;;;;;21045999;28;20047;-50
2021/06/13 02:06:30;;;;;;;7.78;2.42;;;12.10;99.90;;;;;;21046907;28;20048;-50
2021/06/13 02:16:32;;;;;;;4.18;1.52;;;12.10;99.90;;;;;;21047865;28;20032;-50
2021/06/13 02:26:34;;;;;;;5.38;2.53;;;12.20;99.90;;;;;;21045202;28;20139;-50
2021/06/13 02:36:37;;;;;;;5.60;2.53;;;12.00;99.90;;;;;;21865899;22;20243;-50
2021/06/13 02:46:39;;;;;;;3.88;2.13;;;11.90;99.90;;;;;;20732391;28;20084;-50
2021/06/13 02:56:54;;;;;;;5.78;1.98;;;11.80;99.90;;;;;;20729002;28;20123;-50
2021/06/13 03:06:58;;;;;;;3.35;2.08;;;11.80;99.90;;;;;;20805657;28;20132;-49
2021/06/13 03:17:00;;;;;;;6.45;2.42;;;11.80;99.90;;;;;;20805774;28;20041;-49
2021/06/13 03:27:04;;;;;;;4.90;1.48;;;11.80;99.90;;;;;;20804887;28;20160;-49
2021/06/13 03:37:07;;;;;;;2.88;1.50;;;11.80;99.90;;;;;;20809389;28;20122;-49
2021/06/13 03:47:11;;;;;;;4.25;2.25;;;11.70;99.90;;;;;;20807898;28;20045;-49
2021/06/13 03:57:14;;;;;;;7.95;2.15;;;11.70;99.90;;;;;;20801115;28;20037;-49
2021/06/13 04:07:17;;;;;;;6.07;1.95;;;11.70;99.90;;;;;;20815759;28;20045;-49
2021/06/13 04:17:20;;;;;;;5.45;2.10;;;11.70;99.90;;;;;;20805298;28;20142;-50
2021/06/13 04:27:25;;;;;;;4.68;1.77;;;11.70;99.90;;;;;;20818939;28;20176;-50
2021/06/13 04:37:26;;;;;;;6.72;1.70;;;11.80;99.90;;;;;;20838858;28;20087;-50
2021/06/13 04:47:27;;;;;;;10.35;2.20;;;11.90;99.90;;;;;;20814229;28;20079;-50
2021/06/13 04:57:47;;;;;;;4.57;1.70;;;12.00;99.90;;;;;;20814339;28;20042;-49
2021/06/13 05:07:48;;;;;;;3.40;1.85;;;12.20;99.90;;;;;;20811382;28;20049;-49
2021/06/13 05:17:50;;;;;;;9.30;2.22;;;12.40;99.90;;;;;;20814651;28;20250;-49
2021/06/13 05:27:51;;;;;;;6.32;1.90;;;12.70;99.90;;;;;;20720401;28;20054;-50
2021/06/13 05:37:52;;;;;;;3.20;1.40;;;13.00;99.90;;;;;;20730090;28;20198;-49
2021/06/13 05:47:54;;;;;;;3.78;1.63;;;13.50;99.90;;;;;;20743408;28;20062;-49
2021/06/13 05:57:55;;;;;;;6.75;2.03;;;13.90;99.90;;;;;;20714323;28;20048;-49
2021/06/13 06:07:57;;;;;;;4.10;1.60;;;14.40;99.90;;;;;;20727906;28;20045;-49
2021/06/13 06:17:59;;;;;;;5.25;1.20;;;14.80;99.90;;;;;;20732866;28;20121;-49
2021/06/13 06:28:00;;;;;;;4.20;1.15;;;14.90;99.90;;;;;;20731609;28;20057;-48
2021/06/13 06:38:02;;;;;;;2.65;1.08;;;15.30;99.90;;;;;;20739836;28;20058;-48
2021/06/13 06:48:04;;;;;;;5.50;1.73;;;15.00;99.90;;;;;;20728026;28;20203;-50
2021/06/13 06:58:05;;;;;;;9.70;2.95;;;15.30;99.90;;;;;;20726881;28;20083;-50
2021/06/13 07:08:06;;;;;;;148.90;67.07;;;15.60;99.90;;;;;;20724403;28;20052;-49
2021/06/13 07:18:08;;;;;;;4.75;1.67;;;15.40;99.90;;;;;;20729044;28;20050;-49
2021/06/13 07:28:09;;;;;;;3.42;0.82;;;15.70;99.90;;;;;;20733048;28;20080;-49
2021/06/13 07:38:10;;;;;;;3.70;0.90;;;15.80;99.90;;;;;;20735178;28;20127;-49
2021/06/13 07:48:12;;;;;;;1.65;0.80;;;15.60;99.90;;;;;;20733516;28;20045;-48
2021/06/13 07:58:13;;;;;;;1.98;1.13;;;15.90;99.90;;;;;;20734427;28;20041;-49
2021/06/13 08:08:14;;;;;;;2.92;1.00;;;16.50;99.90;;;;;;20737548;28;20049;-49
2021/06/13 08:18:15;;;;;;;2.40;1.30;;;16.80;99.90;;;;;;20735733;28;20129;-49
2021/06/13 08:28:18;;;;;;;3.28;0.93;;;16.80;99.90;;;;;;20714084;28;20042;-48
2021/06/13 08:38:21;;;;;;;3.97;1.13;;;17.20;99.90;;;;;;20731247;28;20174;-49
2021/06/13 08:48:26;;;;;;;2.42;1.13;;;17.30;99.90;;;;;;20726308;28;20046;-49
2021/06/13 08:58:28;;;;;;;3.40;1.70;;;17.30;99.90;;;;;;20733103;28;20065;-50
2021/06/13 09:08:34;;;;;;;1.35;0.65;;;18.10;99.90;;;;;;20741525;28;20045;-50
2021/06/13 09:18:38;;;;;;;2.30;0.60;;;18.00;99.90;;;;;;20746435;28;20076;-47
2021/06/13 09:28:42;;;;;;;2.28;1.13;;;18.20;99.90;;;;;;20725485;28;20052;-50
2021/06/13 09:38:45;;;;;;;4.45;1.20;;;18.50;99.90;;;;;;20750916;28;20038;-50
2021/06/13 09:49:11;;;;;;;5.10;1.77;;;19.40;99.90;;;;;;20749896;28;20045;-50
2021/06/13 09:59:17;;;;;;;4.43;1.58;;;19.30;99.90;;;;;;20732429;28;20065;-48
2021/06/13 10:09:22;;;;;;;3.22;1.38;;;19.40;99.90;;;;;;20701596;28;20057;-50
2021/06/13 10:19:25;;;;;;;5.97;1.65;;;19.80;99.90;;;;;;20751444;28;20093;-48
2021/06/13 10:29:29;;;;;;;3.65;1.33;;;19.70;99.90;;;;;;20742086;28;20053;-48
2021/06/13 10:39:32;;;;;;;3.67;1.40;;;19.90;99.90;;;;;;20815517;28;20091;-48
2021/06/13 10:49:40;;;;;;;6.18;2.28;;;20.10;99.90;;;;;;20814562;28;20102;-47
2021/06/13 11:00:14;;;;;;;4.57;1.08;;;20.60;99.90;;;;;;20772204;28;20064;-48
2021/06/13 11:10:17;;;;;;;3.67;1.85;;;20.70;99.90;;;;;;20739849;28;20052;-48
2021/06/13 11:30:45;;;;;;;5.43;1.33;;;22.30;99.90;;;;;;20814722;28;20152;-49
2021/06/13 11:40:53;;;;;;;3.30;1.52;;;21.90;99.90;;;;;;20812442;28;20092;-50
2021/06/13 11:51:13;;;;;;;8.32;1.65;;;22.60;99.90;;;;;;20807490;28;20048;-49
2021/06/13 12:01:21;;;;;;;2.92;1.00;;;22.00;99.90;;;;;;20719329;28;20050;-49
2021/06/13 12:11:49;;;;;;;3.40;1.67;;;22.10;99.90;;;;;;20721076;28;20046;-49
2021/06/13 12:21:50;;;;;;;2.50;1.23;;;22.90;99.90;;;;;;20710717;28;20057;-48
2021/06/13 12:31:53;;;;;;;2.47;1.00;;;24.00;99.90;;;;;;20729181;28;20808;-49
2021/06/13 12:42:08;;;;;;;4.78;1.35;;;24.00;99.00;;;;;;20794159;28;20045;-49
2021/06/13 12:52:15;;;;;;;4.30;1.05;;;23.90;99.90;;;;;;20821391;28;20041;-49
2021/06/13 13:02:16;;;;;;;2.53;0.87;;;23.80;99.10;;;;;;20831324;28;20049;-49
2021/06/13 13:12:20;;;;;;;1.98;0.80;;;24.00;98.40;;;;;;20818783;28;20103;-49
2021/06/13 13:22:22;;;;;;;2.30;0.88;;;24.90;97.70;;;;;;20809754;28;20042;-49
2021/06/13 13:32:24;;;;;;;3.70;0.90;;;24.10;99.50;;;;;;20803210;28;20041;-49
2021/06/13 13:42:26;;;;;;;2.55;0.98;;;24.30;97.40;;;;;;20811229;28;20049;-49
2021/06/13 13:52:31;;;;;;;2.45;1.00;;;23.90;97.80;;;;;;20791064;28;20045;-49
2021/06/13 14:02:32;;;;;;;1.83;0.60;;;24.00;97.40;;;;;;20808397;28;20312;-49
2021/06/13 14:12:33;;;;;;;2.03;0.68;;;22.80;98.60;;;;;;20790226;28;20040;-49
2021/06/13 14:22:34;;;;;;;1.60;0.63;;;22.70;99.40;;;;;;20814269;28;20140;-49
2021/06/13 14:32:35;;;;;;;1.65;0.98;;;23.50;98.30;;;;;;20804617;28;20045;-49
2021/06/13 14:42:38;;;;;;;3.15;1.15;;;23.50;98.40;;;;;;20804723;28;20176;-49
2021/06/13 14:52:41;;;;;;;1.80;0.82;;;23.70;97.60;;;;;;20812893;28;20037;-49
2021/06/13 15:02:42;;;;;;;1.55;0.95;;;23.40;97.00;;;;;;20730369;28;20046;-49
2021/06/13 15:12:44;;;;;;;3.17;1.05;;;23.40;98.00;;;;;;20725516;28;20050;-49
2021/06/13 15:22:45;;;;;;;2.97;0.88;;;23.50;97.40;;;;;;20726663;28;20054;-49
2021/06/13 15:32:47;;;;;;;2.63;0.95;;;23.60;98.30;;;;;;20717693;28;20049;-49
2021/06/13 15:42:49;;;;;;;2.53;0.82;;;23.90;97.20;;;;;;20725627;28;20513;-49
2021/06/13 15:52:50;;;;;;;1.30;0.60;;;23.60;97.30;;;;;;20721493;28;20038;-49
2021/06/13 16:02:52;;;;;;;1.90;0.90;;;23.10;98.00;;;;;;20717660;28;20052;-49
2021/06/13 16:12:53;;;;;;;3.53;0.85;;;22.90;97.80;;;;;;20727034;28;20041;-49
2021/06/13 16:22:54;;;;;;;1.95;0.60;;;22.50;97.90;;;;;;20767928;28;20397;-49
2021/06/13 16:32:56;;;;;;;1.95;0.98;;;22.70;97.40;;;;;;20759091;28;20045;-49
2021/06/13 16:42:58;;;;;;;1.48;0.90;;;22.90;97.20;;;;;;20747584;28;20057;-49
2021/06/13 16:52:59;;;;;;;1.52;0.60;;;22.60;97.40;;;;;;20759122;28;20045;-49
2021/06/13 17:03:03;;;;;;;2.38;0.50;;;22.50;98.00;;;;;;20793166;28;20041;-49
2021/06/13 17:13:05;;;;;;;1.23;0.57;;;22.70;97.10;;;;;;20743180;28;20041;-49
2021/06/13 17:33:20;;;;;;;1.80;0.70;;;22.40;97.50;;;;;;20744694;28;20206;-49
2021/06/13 17:43:22;;;;;;;1.58;0.68;;;22.60;96.70;;;;;;20728726;28;20338;-49
2021/06/13 17:53:23;;;;;;;1.85;0.63;;;22.40;97.50;;;;;;20733945;28;20096;-49
2021/06/13 18:03:24;;;;;;;7.05;1.60;;;22.10;97.70;;;;;;20728445;28;20057;-49
2021/06/13 18:13:25;;;;;;;1.70;0.60;;;22.10;97.90;;;;;;20728059;28;20044;-49
2021/06/13 18:23:26;;;;;;;2.15;0.75;;;22.20;98.80;;;;;;20725637;28;20045;-49
2021/06/13 18:33:27;;;;;;;2.08;0.90;;;21.90;99.30;;;;;;20724309;28;20097;-49
2021/06/13 18:43:29;;;;;;;2.65;0.95;;;21.70;99.90;;;;;;20825119;28;20099;-49
2021/06/13 18:53:32;;;;;;;1.98;0.70;;;21.50;99.90;;;;;;20803597;28;20045;-49
2021/06/13 19:03:34;;;;;;;2.38;0.80;;;21.30;99.90;;;;;;20805689;28;20183;-49
2021/06/13 19:13:37;;;;;;;1.85;0.80;;;21.20;99.90;;;;;;20825098;28;20060;-49
2021/06/13 19:23:39;;;;;;;4.32;0.75;;;21.10;99.90;;;;;;20749007;28;20056;-49
2021/06/13 19:33:41;;;;;;;2.35;1.10;;;21.00;99.90;;;;;;20709571;28;20812;-50
2021/06/13 19:43:42;;;;;;;3.08;0.98;;;21.00;99.90;;;;;;20743168;28;20061;-50
2021/06/13 19:53:46;;;;;;;2.60;1.10;;;20.80;99.90;;;;;;20729694;28;20137;-49
2021/06/13 20:03:48;;;;;;;3.45;1.15;;;20.70;99.90;;;;;;20721559;28;20805;-49
2021/06/13 20:13:49;;;;;;;6.05;1.52;;;20.50;99.90;;;;;;20745227;28;20388;-49
2021/06/13 20:23:51;;;;;;;1.95;1.08;;;20.30;99.90;;;;;;20712896;28;20060;-49
2021/06/13 20:33:52;;;;;;;2.38;1.00;;;20.10;99.90;;;;;;20721278;28;20067;-49
2021/06/13 20:43:53;;;;;;;7.72;1.10;;;19.90;99.90;;;;;;20713087;28;20052;-49
2021/06/13 20:53:54;;;;;;;2.42;1.10;;;19.80;99.90;;;;;;20727621;28;20045;-49
2021/06/13 21:03:55;;;;;;;2.47;1.08;;;19.60;99.90;;;;;;20734594;28;20076;-49
2021/06/13 21:14:01;;;;;;;2.55;1.00;;;19.50;99.90;;;;;;20745253;28;20041;-49
2021/06/13 21:24:02;;;;;;;3.10;1.17;;;19.30;99.90;;;;;;20733931;28;20045;-49
2021/06/13 21:34:04;;;;;;;1.73;0.88;;;19.10;99.90;;;;;;20733371;28;20068;-49
2021/06/13 21:44:05;;;;;;;1.60;0.90;;;18.80;99.90;;;;;;20729566;28;20152;-49
2021/06/13 21:54:07;;;;;;;4.10;2.45;;;18.60;99.90;;;;;;20738936;28;20049;-49
2021/06/13 22:04:08;;;;;;;4.63;1.75;;;18.50;99.90;;;;;;20728377;28;20049;-49
2021/06/13 22:14:09;;;;;;;2.47;0.95;;;18.20;99.90;;;;;;20731667;28;20075;-49
2021/06/13 22:24:10;;;;;;;2.17;1.10;;;18.00;99.90;;;;;;20746316;28;20345;-49
2021/06/13 22:34:11;;;;;;;4.78;1.52;;;17.80;99.90;;;;;;20731771;28;20139;-49
2021/06/13 22:44:18;;;;;;;3.78;1.00;;;17.70;99.90;;;;;;20726251;28;20053;-49
2021/06/13 22:54:20;;;;;;;1.90;0.83;;;17.40;99.90;;;;;;20705185;28;20045;-49
2021/06/13 23:04:21;;;;;;;2.35;0.98;;;17.30;99.90;;;;;;20729758;28;20099;-48
2021/06/13 23:14:22;;;;;;;2.08;1.15;;;17.30;99.90;;;;;;20730545;28;20104;-48
2021/06/13 23:24:23;;;;;;;4.20;1.52;;;17.20;99.90;;;;;;20724424;28;20053;-49
2021/06/13 23:34:25;;;;;;;3.67;1.08;;;17.10;99.90;;;;;;20719189;28;20241;-49
2021/06/13 23:44:26;;;;;;;3.33;1.15;;;16.90;99.90;;;;;;20728609;28;20049;-49
2021/06/13 23:54:27;;;;;;;4.72;1.13;;;16.80;99.90;;;;;;20727115;28;20217;-49
